createdAt,value
2019-02-03T00:01:43.034Z,9.00
2019-02-03T00:04:11.986Z,9.00
2019-02-03T00:06:40.854Z,9.00
2019-02-03T00:09:15.219Z,9.00
2019-02-03T00:11:43.575Z,9.00
2019-02-03T00:14:12.018Z,9.00
2019-02-03T00:16:40.605Z,9.00
2019-02-03T00:19:09.046Z,9.00
2019-02-03T00:21:37.506Z,9.00
2019-02-03T00:24:06.046Z,8.90
2019-02-03T00:26:34.533Z,9.00
2019-02-03T00:29:03.079Z,8.90
2019-02-03T00:31:31.464Z,9.00
2019-02-03T00:34:00.331Z,9.00
2019-02-03T00:36:28.694Z,9.00
2019-02-03T00:38:57.218Z,9.00
2019-02-03T00:41:25.841Z,8.90
2019-02-03T00:43:54.285Z,8.90
2019-02-03T00:46:22.663Z,8.90
2019-02-03T00:48:52.621Z,8.90
2019-02-03T00:51:21.087Z,8.90
2019-02-03T00:53:49.535Z,8.90
2019-02-03T00:56:17.910Z,8.90
2019-02-03T00:58:46.397Z,8.90
2019-02-03T01:01:14.759Z,8.90
2019-02-03T01:03:43.106Z,8.90
2019-02-03T01:06:11.988Z,9.00
2019-02-03T01:08:40.660Z,9.00
2019-02-03T01:11:09.021Z,9.00
2019-02-03T01:13:37.470Z,9.00
2019-02-03T01:16:05.840Z,9.00
2019-02-03T01:18:34.345Z,9.10
2019-02-03T01:21:03.064Z,9.10
2019-02-03T01:23:31.513Z,9.10
2019-02-03T01:25:59.997Z,9.10
2019-02-03T01:28:28.398Z,9.10
2019-02-03T01:30:56.744Z,9.10
2019-02-03T01:33:25.128Z,9.10
2019-02-03T01:35:55.267Z,9.10
2019-02-03T01:38:24.224Z,9.10
2019-02-03T01:40:52.569Z,9.10
2019-02-03T01:43:21.042Z,8.90
2019-02-03T01:45:51.588Z,9.00
2019-02-03T01:48:20.144Z,9.10
2019-02-03T01:50:48.584Z,9.10
2019-02-03T01:53:17.052Z,9.10
2019-02-03T01:55:45.496Z,9.10
2019-02-03T01:58:14.181Z,9.10
2019-02-03T02:00:42.931Z,9.10
2019-02-03T02:03:11.297Z,9.10
2019-02-03T02:05:39.919Z,9.10
2019-02-03T02:08:08.455Z,9.10
2019-02-03T02:10:36.819Z,9.20
2019-02-03T02:13:05.493Z,9.20
2019-02-03T02:15:34.237Z,9.20
2019-02-03T02:18:02.949Z,9.20
2019-02-03T02:20:31.399Z,9.20
2019-02-03T02:22:59.761Z,9.20
2019-02-03T02:25:30.006Z,9.20
2019-02-03T02:27:58.404Z,9.20
2019-02-03T02:30:27.576Z,9.10
2019-02-03T02:32:55.973Z,9.10
2019-02-03T02:35:24.424Z,9.00
2019-02-03T02:38:05.814Z,9.10
2019-02-03T02:40:23.953Z,9.10
2019-02-03T02:42:52.339Z,9.10
2019-02-03T02:45:20.915Z,9.10
2019-02-03T02:47:49.431Z,9.10
2019-02-03T02:50:24.921Z,9.10
2019-02-03T02:52:53.389Z,9.10
2019-02-03T02:55:21.834Z,9.10
2019-02-03T02:57:50.642Z,9.10
2019-02-03T03:00:27.344Z,9.10
2019-02-03T03:02:56.915Z,9.00
2019-02-03T03:05:25.369Z,9.00
2019-02-03T03:07:53.783Z,9.00
2019-02-03T03:10:22.649Z,9.00
2019-02-03T03:12:52.816Z,9.00
2019-02-03T03:15:21.392Z,9.00
2019-02-03T03:17:51.588Z,9.10
2019-02-03T03:20:20.428Z,9.00
2019-02-03T03:22:50.174Z,9.00
2019-02-03T03:25:20.590Z,9.00
2019-02-03T03:27:49.443Z,9.00
2019-02-03T03:30:26.273Z,9.00
2019-02-03T03:32:56.461Z,9.00
2019-02-03T03:35:25.682Z,9.00
2019-02-03T03:37:54.270Z,9.00
2019-02-03T03:40:27.775Z,9.00
2019-02-03T03:42:58.058Z,9.00
2019-02-03T03:45:26.668Z,9.00
2019-02-03T03:47:55.259Z,9.00
2019-02-03T03:50:23.740Z,9.00
2019-02-03T03:52:52.198Z,9.00
2019-02-03T03:55:21.372Z,9.00
2019-02-03T03:57:49.892Z,9.00
2019-02-03T04:00:27.089Z,9.00
2019-02-03T04:02:55.661Z,9.00
2019-02-03T04:05:24.193Z,8.90
2019-02-03T04:07:52.732Z,8.90
2019-02-03T04:10:22.547Z,9.00
2019-02-03T04:12:51.001Z,9.00
2019-02-03T04:15:19.847Z,9.00
2019-02-03T04:17:49.323Z,8.90
2019-02-03T04:20:24.262Z,8.90
2019-02-03T04:22:52.723Z,8.90
2019-02-03T04:25:21.192Z,8.90
2019-02-03T04:27:49.792Z,8.90
2019-02-03T04:30:19.038Z,8.90
2019-02-03T04:32:48.325Z,8.80
2019-02-03T04:35:18.489Z,8.80
2019-02-03T04:37:47.070Z,8.80
2019-02-03T04:40:16.716Z,8.70
2019-02-03T04:42:45.488Z,8.80
2019-02-03T04:45:15.426Z,8.80
2019-02-03T04:47:45.043Z,8.70
2019-02-03T04:50:17.493Z,8.70
2019-02-03T04:52:45.857Z,8.70
2019-02-03T04:55:16.718Z,8.60
2019-02-03T04:57:45.170Z,8.40
2019-02-03T05:00:24.109Z,8.50
2019-02-03T05:02:54.879Z,8.60
2019-02-03T05:05:23.412Z,8.60
2019-02-03T05:07:52.325Z,8.60
2019-02-03T05:10:20.785Z,8.60
2019-02-03T05:12:49.241Z,8.60
2019-02-03T05:15:20.345Z,8.60
2019-02-03T05:17:48.878Z,8.60
2019-02-03T05:20:20.263Z,8.60
2019-02-03T05:22:48.787Z,8.70
2019-02-03T05:25:17.170Z,8.70
2019-02-03T05:27:45.684Z,8.70
2019-02-03T05:30:23.106Z,8.70
2019-02-03T05:32:51.574Z,8.70
2019-02-03T05:35:22.049Z,8.70
2019-02-03T05:37:51.083Z,8.60
2019-02-03T05:40:19.651Z,8.60
2019-02-03T05:42:49.807Z,8.60
2019-02-03T05:45:19.018Z,8.60
2019-02-03T05:47:50.024Z,8.60
2019-02-03T05:50:18.924Z,8.60
2019-02-03T05:52:47.390Z,8.60
2019-02-03T05:55:16.419Z,8.60
2019-02-03T05:57:44.976Z,8.60
2019-02-03T06:00:28.873Z,8.60
2019-02-03T06:02:58.095Z,8.60
2019-02-03T06:05:26.534Z,8.50
2019-02-03T06:07:55.201Z,8.50
2019-02-03T06:10:23.583Z,8.40
2019-02-03T06:12:53.116Z,8.40
2019-02-03T06:15:21.594Z,8.40
2019-02-03T06:17:50.061Z,8.30
2019-02-03T06:20:19.441Z,8.20
2019-02-03T06:22:48.203Z,8.20
2019-02-03T06:25:16.894Z,8.20
2019-02-03T06:27:46.015Z,8.10
2019-02-03T06:31:15.781Z,8.10
2019-02-03T06:33:52.375Z,8.00
2019-02-03T06:36:21.797Z,7.90
2019-02-03T06:38:51.735Z,7.80
2019-02-03T06:41:20.096Z,7.80
2019-02-03T06:43:48.857Z,7.70
2019-02-03T06:46:35.717Z,7.70
2019-02-03T06:49:07.712Z,7.70
2019-02-03T06:51:37.896Z,7.70
2019-02-03T06:54:06.532Z,7.70
2019-02-03T06:56:36.859Z,7.60
2019-02-03T06:59:11.464Z,7.60
2019-02-03T07:01:40.660Z,7.60
2019-02-03T07:04:10.549Z,7.50
2019-02-03T07:06:39.722Z,7.50
2019-02-03T07:09:09.133Z,7.50
2019-02-03T07:11:39.309Z,7.50
2019-02-03T07:14:08.476Z,7.50
2019-02-03T07:16:41.125Z,7.60
2019-02-03T07:19:07.329Z,7.60
2019-02-03T07:21:35.833Z,7.50
2019-02-03T07:24:04.418Z,7.50
2019-02-03T07:26:33.381Z,7.50
2019-02-03T07:29:01.786Z,7.50
2019-02-03T07:31:30.164Z,7.50
2019-02-03T07:33:59.089Z,7.50
2019-02-03T07:36:27.467Z,7.50
2019-02-03T07:38:56.968Z,7.60
2019-02-03T07:41:25.868Z,7.60
2019-02-03T07:43:55.246Z,7.60
2019-02-03T07:46:23.712Z,7.60
2019-02-03T07:48:52.397Z,7.70
2019-02-03T07:51:20.849Z,7.80
2019-02-03T07:53:49.227Z,7.80
2019-02-03T07:56:17.690Z,7.80
2019-02-03T07:58:46.363Z,7.80
2019-02-03T08:01:14.967Z,7.80
2019-02-03T08:03:43.833Z,7.90
2019-02-03T08:06:12.196Z,7.90
2019-02-03T08:08:40.671Z,8.00
2019-02-03T08:11:09.148Z,8.00
2019-02-03T08:13:37.606Z,8.00
2019-02-03T08:16:06.055Z,8.00
2019-02-03T08:18:34.892Z,8.10
2019-02-03T08:21:03.247Z,8.10
2019-02-03T08:23:33.427Z,8.10
2019-02-03T08:26:01.896Z,8.20
2019-02-03T08:28:30.454Z,8.20
2019-02-03T08:30:58.826Z,8.20
2019-02-03T08:33:27.573Z,8.30
2019-02-03T08:35:56.151Z,8.30
2019-02-03T08:38:25.255Z,8.30
2019-02-03T08:40:53.618Z,8.30
2019-02-03T08:43:22.056Z,8.30
2019-02-03T08:45:50.541Z,8.30
2019-02-03T08:48:19.187Z,8.30
2019-02-03T08:50:47.656Z,8.40
2019-02-03T08:53:17.118Z,8.50
2019-02-03T08:55:45.576Z,8.60
2019-02-03T08:58:14.152Z,8.60
2019-02-03T09:00:42.628Z,8.70
2019-02-03T09:03:11.577Z,8.70
2019-02-03T09:05:40.076Z,8.80
2019-02-03T09:08:08.776Z,8.90
2019-02-03T09:10:47.800Z,8.90
2019-02-03T09:13:07.617Z,8.90
2019-02-03T09:15:35.976Z,8.90
2019-02-03T09:18:04.930Z,9.00
2019-02-03T09:20:33.419Z,9.00
2019-02-03T09:23:01.980Z,9.10
2019-02-03T09:25:30.759Z,9.20
2019-02-03T09:28:00.929Z,9.20
2019-02-03T09:30:31.191Z,9.30
2019-02-03T09:32:59.744Z,9.30
2019-02-03T09:35:28.134Z,9.40
2019-02-03T09:37:57.540Z,9.50
2019-02-03T09:40:28.806Z,9.50
2019-02-03T09:42:57.577Z,9.50
2019-02-03T09:45:26.146Z,9.50
2019-02-03T09:47:54.920Z,9.40
2019-02-03T09:50:26.323Z,9.40
2019-02-03T09:53:00.008Z,9.30
2019-02-03T09:55:28.493Z,9.40
2019-02-03T09:57:57.995Z,9.50
2019-02-03T10:00:30.512Z,9.50
2019-02-03T10:03:01.098Z,9.60
2019-02-03T10:05:29.475Z,9.60
2019-02-03T10:07:58.124Z,9.60
2019-02-03T10:10:33.529Z,9.70
2019-02-03T10:13:03.417Z,9.70
2019-02-03T10:15:33.634Z,9.80
2019-02-03T10:18:04.221Z,9.80
2019-02-03T10:20:32.735Z,9.80
2019-02-03T10:23:01.499Z,9.80
2019-02-03T10:25:30.381Z,9.90
2019-02-03T10:27:59.433Z,9.90
2019-02-03T10:30:28.301Z,9.90
2019-02-03T10:32:58.164Z,9.90
2019-02-03T10:35:27.426Z,10.00
2019-02-03T10:37:56.870Z,10.00
2019-02-03T10:40:31.149Z,10.10
2019-02-03T10:43:00.775Z,10.10
2019-02-03T10:45:29.539Z,10.20
2019-02-03T10:47:58.155Z,10.40
2019-02-03T10:50:32.658Z,10.90
2019-02-03T10:53:02.697Z,11.40
2019-02-03T10:55:31.167Z,11.50
2019-02-03T10:57:59.757Z,11.20
2019-02-03T11:00:31.393Z,11.10
2019-02-03T11:02:59.861Z,11.00
2019-02-03T11:05:41.300Z,10.90
2019-02-03T11:08:12.729Z,10.80
2019-02-03T11:10:41.244Z,10.80
2019-02-03T11:13:09.831Z,10.80
2019-02-03T11:15:38.190Z,10.80
2019-02-03T11:18:06.724Z,10.80
2019-02-03T11:20:35.578Z,10.90
2019-02-03T11:23:05.562Z,11.00
2019-02-03T11:25:34.077Z,11.00
2019-02-03T11:28:03.212Z,11.10
2019-02-03T11:30:32.171Z,11.20
2019-02-03T11:33:05.729Z,11.20
2019-02-03T11:35:31.306Z,11.20
2019-02-03T11:37:59.996Z,11.20
2019-02-03T11:40:30.656Z,11.10
2019-02-03T11:42:59.121Z,11.10
2019-02-03T11:45:36.486Z,11.00
2019-02-03T11:48:09.228Z,10.90
2019-02-03T11:50:38.645Z,10.80
2019-02-03T11:53:10.169Z,10.80
2019-02-03T11:55:38.643Z,10.90
2019-02-03T11:58:08.457Z,11.00
2019-02-03T12:00:37.422Z,11.10
2019-02-03T12:03:07.260Z,11.30
2019-02-03T12:05:37.477Z,11.30
2019-02-03T12:08:07.206Z,11.40
2019-02-03T12:10:36.227Z,11.40
2019-02-03T12:13:05.702Z,11.50
2019-02-03T12:15:34.781Z,11.60
2019-02-03T12:18:04.411Z,11.70
2019-02-03T12:20:33.022Z,11.80
2019-02-03T12:23:02.017Z,11.70
2019-02-03T12:25:33.331Z,11.70
2019-02-03T12:28:01.929Z,11.60
2019-02-03T12:30:31.607Z,11.60
2019-02-03T12:33:02.139Z,11.60
2019-02-03T12:35:30.653Z,11.60
2019-02-03T12:37:59.566Z,11.40
2019-02-03T12:40:30.788Z,11.40
2019-02-03T12:42:59.464Z,11.40
2019-02-03T12:45:28.861Z,11.50
2019-02-03T12:47:57.804Z,11.70
2019-02-03T12:50:26.534Z,11.70
2019-02-03T12:52:55.916Z,11.60
2019-02-03T12:55:28.034Z,11.60
2019-02-03T12:57:58.183Z,11.50
2019-02-03T13:00:30.295Z,11.50
2019-02-03T13:02:58.972Z,11.40
2019-02-03T13:05:29.985Z,11.40
2019-02-03T13:07:59.851Z,11.40
2019-02-03T13:10:31.510Z,11.60
2019-02-03T13:13:00.734Z,11.60
2019-02-03T13:15:45.067Z,11.60
2019-02-03T13:18:14.077Z,11.60
2019-02-03T13:20:43.244Z,11.50
2019-02-03T13:23:12.973Z,11.50
2019-02-03T13:25:41.909Z,11.40
2019-02-03T13:28:12.987Z,11.40
2019-02-03T13:30:47.350Z,11.40
2019-02-03T13:33:17.207Z,11.30
2019-02-03T13:35:45.767Z,11.30
2019-02-03T13:38:14.477Z,11.30
2019-02-03T13:40:43.220Z,11.30
2019-02-03T13:43:12.539Z,11.30
2019-02-03T13:45:41.673Z,11.30
2019-02-03T13:48:11.020Z,11.30
2019-02-03T13:50:39.898Z,11.30
2019-02-03T13:53:08.797Z,11.40
2019-02-03T13:55:37.502Z,11.40
2019-02-03T13:58:05.988Z,11.40
2019-02-03T14:00:38.644Z,11.40
2019-02-03T14:03:07.111Z,11.30
2019-02-03T14:05:35.588Z,11.20
2019-02-03T14:08:04.536Z,11.10
2019-02-03T14:10:33.053Z,11.00
2019-02-03T14:13:02.133Z,10.90
2019-02-03T14:15:30.602Z,10.70
2019-02-03T14:17:58.952Z,10.60
2019-02-03T14:20:29.412Z,10.50
2019-02-03T14:22:58.396Z,10.30
2019-02-03T14:25:26.924Z,10.20
2019-02-03T14:27:55.462Z,10.10
2019-02-03T14:30:40.064Z,10.00
2019-02-03T14:33:00.566Z,9.80
2019-02-03T14:35:32.777Z,9.80
2019-02-03T14:38:00.380Z,9.80
2019-02-03T14:40:29.586Z,9.70
2019-02-03T14:43:01.637Z,9.60
2019-02-03T14:45:29.107Z,9.50
2019-02-03T14:47:57.545Z,9.40
2019-02-03T14:50:26.533Z,9.40
2019-02-03T14:52:56.235Z,9.30
2019-02-03T14:55:28.745Z,9.20
2019-02-03T14:57:57.140Z,9.20
2019-02-03T15:00:33.556Z,9.10
2019-02-03T15:03:06.356Z,9.10
2019-02-03T15:05:35.365Z,8.90
2019-02-03T15:08:05.553Z,8.80
2019-02-03T15:10:33.981Z,8.80
2019-02-03T15:13:13.181Z,8.70
2019-02-03T15:15:36.283Z,8.70
2019-02-03T15:18:05.301Z,8.70
2019-02-03T15:20:33.739Z,8.60
2019-02-03T15:23:02.942Z,8.50
2019-02-03T15:25:31.300Z,8.60
2019-02-03T15:28:00.052Z,8.50
2019-02-03T15:30:31.885Z,8.50
2019-02-03T15:33:00.266Z,8.40
2019-02-03T15:35:29.755Z,8.40
2019-02-03T15:37:58.181Z,8.40
2019-02-03T15:40:26.641Z,8.50
2019-02-03T15:42:55.021Z,8.50
2019-02-03T15:45:24.098Z,8.50
2019-02-03T15:47:52.622Z,8.50
2019-02-03T15:50:23.910Z,8.50
2019-02-03T15:52:55.461Z,8.60
2019-02-03T15:55:26.761Z,8.60
2019-02-03T15:57:57.294Z,8.60
2019-02-03T16:00:38.344Z,8.50
2019-02-03T16:03:10.228Z,8.50
2019-02-03T16:05:38.889Z,8.60
2019-02-03T16:08:08.297Z,8.60
2019-02-03T16:10:36.698Z,8.60
2019-02-03T16:13:05.599Z,8.70
2019-02-03T16:15:35.890Z,8.70
2019-02-03T16:18:05.513Z,8.70
2019-02-03T16:20:33.861Z,8.70
2019-02-03T16:23:02.448Z,8.70
2019-02-03T16:25:31.021Z,8.60
2019-02-03T16:27:59.772Z,8.60
2019-02-03T16:30:31.199Z,8.50
2019-02-03T16:33:00.102Z,8.50
2019-02-03T16:35:28.991Z,8.40
2019-02-03T16:37:57.497Z,8.30
2019-02-03T16:40:27.900Z,8.30
2019-02-03T16:42:56.579Z,8.30
2019-02-03T16:45:25.052Z,8.30
2019-02-03T16:47:53.972Z,8.30
2019-02-03T16:50:29.924Z,8.30
2019-02-03T16:53:00.309Z,8.30
2019-02-03T16:55:28.689Z,8.30
2019-02-03T16:57:58.880Z,8.30
2019-02-03T17:00:30.583Z,8.30
2019-02-03T17:02:59.397Z,8.40
2019-02-03T17:05:28.581Z,8.40
2019-02-03T17:07:59.148Z,8.40
2019-02-03T17:10:27.613Z,8.40
2019-02-03T17:12:56.125Z,8.40
2019-02-03T17:15:37.564Z,8.40
2019-02-03T17:18:07.573Z,8.40
2019-02-03T17:20:35.960Z,8.30
2019-02-03T17:23:04.727Z,8.30
2019-02-03T17:25:37.094Z,8.20
2019-02-03T17:28:05.563Z,8.20
2019-02-03T17:30:34.355Z,8.30
2019-02-03T17:33:02.918Z,8.30
2019-02-03T17:35:36.106Z,8.40
2019-02-03T17:38:05.519Z,8.40
2019-02-03T17:40:33.998Z,8.30
2019-02-03T17:43:02.368Z,8.20
2019-02-03T17:45:30.991Z,8.20
2019-02-03T17:47:59.670Z,8.30
2019-02-03T17:50:28.231Z,8.30
2019-02-03T17:52:56.582Z,8.20
2019-02-03T17:55:24.968Z,8.20
2019-02-03T17:57:53.887Z,8.20
2019-02-03T18:00:39.999Z,8.20
2019-02-03T18:03:08.608Z,8.10
2019-02-03T18:05:37.098Z,8.10
2019-02-03T18:08:07.393Z,8.10
2019-02-03T18:10:36.078Z,8.20
2019-02-03T18:13:05.234Z,8.10
2019-02-03T18:15:33.609Z,8.10
2019-02-03T18:18:02.112Z,8.10
2019-02-03T18:20:30.491Z,8.10
2019-02-03T18:22:58.865Z,8.00
2019-02-03T18:25:27.748Z,8.10
2019-02-03T18:27:57.883Z,8.10
2019-02-03T18:30:26.572Z,8.10
2019-02-03T18:32:55.631Z,8.10
2019-02-03T18:35:24.183Z,8.10
2019-02-03T18:37:53.044Z,8.10
2019-02-03T18:40:22.529Z,8.10
2019-02-03T18:42:51.000Z,8.10
2019-02-03T18:45:20.153Z,8.00
2019-02-03T18:47:48.760Z,8.00
2019-02-03T18:50:19.572Z,8.00
2019-02-03T18:52:48.493Z,7.90
2019-02-03T18:55:26.063Z,7.80
2019-02-03T18:57:54.578Z,7.80
2019-02-03T19:00:28.688Z,7.70
2019-02-03T19:02:58.255Z,7.70
2019-02-03T19:05:30.020Z,7.70
2019-02-03T19:07:58.719Z,7.70
2019-02-03T19:10:27.224Z,7.70
2019-02-03T19:12:56.024Z,7.70
2019-02-03T19:15:26.541Z,7.70
2019-02-03T19:17:55.387Z,7.80
2019-02-03T19:20:27.413Z,7.80
2019-02-03T19:22:56.073Z,7.80
2019-02-03T19:25:24.729Z,7.80
2019-02-03T19:27:55.708Z,7.70
2019-02-03T19:30:24.883Z,7.60
2019-02-03T19:32:54.242Z,7.70
2019-02-03T19:35:24.298Z,7.70
2019-02-03T19:37:52.964Z,7.60
2019-02-03T19:40:24.321Z,7.60
2019-02-03T19:42:53.909Z,7.70
2019-02-03T19:45:24.341Z,7.60
2019-02-03T19:47:54.320Z,7.60
2019-02-03T19:50:28.175Z,7.60
2019-02-03T19:52:56.648Z,7.60
2019-02-03T19:55:25.324Z,7.50
2019-02-03T19:57:54.293Z,7.50
2019-02-03T20:00:31.614Z,7.50
2019-02-03T20:03:00.602Z,7.50
2019-02-03T20:05:29.088Z,7.40
2019-02-03T20:07:58.074Z,7.40
2019-02-03T20:10:26.910Z,7.40
2019-02-03T20:12:56.209Z,7.40
2019-02-03T20:15:25.004Z,7.50
2019-02-03T20:17:53.753Z,7.40
2019-02-03T20:20:26.678Z,7.50
2019-02-03T20:22:55.527Z,7.50
2019-02-03T20:25:24.708Z,7.40
2019-02-03T20:27:56.268Z,7.30
2019-02-03T20:30:37.152Z,7.20
2019-02-03T20:32:56.657Z,7.20
2019-02-03T20:35:26.924Z,7.20
2019-02-03T20:37:55.341Z,7.20
2019-02-03T20:40:33.089Z,7.30
2019-02-03T20:43:02.561Z,7.30
2019-02-03T20:45:30.923Z,7.20
2019-02-03T20:47:59.503Z,7.30
2019-02-03T20:50:27.979Z,7.20
2019-02-03T20:52:56.875Z,7.10
2019-02-03T20:55:25.560Z,7.10
2019-02-03T20:57:54.027Z,7.00
2019-02-03T21:00:30.288Z,6.90
2019-02-03T21:02:58.853Z,6.90
2019-02-03T21:05:27.546Z,6.90
2019-02-03T21:07:56.397Z,6.90
2019-02-03T21:10:25.714Z,6.80
2019-02-03T21:12:54.820Z,6.70
2019-02-03T21:15:33.026Z,6.80
2019-02-03T21:17:56.908Z,6.70
2019-02-03T21:20:28.689Z,6.80
2019-02-03T21:22:57.306Z,6.90
2019-02-03T21:25:26.082Z,6.80
2019-02-03T21:27:55.628Z,6.80
2019-02-03T21:30:32.024Z,6.80
2019-02-03T21:33:00.879Z,6.90
2019-02-03T21:35:29.647Z,6.90
2019-02-03T21:37:58.138Z,6.90
2019-02-03T21:40:27.892Z,7.00
2019-02-03T21:42:57.250Z,6.90
2019-02-03T21:45:25.736Z,6.80
2019-02-03T21:47:54.790Z,6.70
2019-02-03T21:50:25.760Z,6.60
2019-02-03T21:52:54.120Z,6.60
2019-02-03T21:55:23.000Z,6.50
2019-02-03T21:57:51.512Z,6.40
2019-02-03T22:00:30.301Z,6.30
2019-02-03T22:03:00.479Z,6.30
2019-02-03T22:05:29.145Z,6.30
2019-02-03T22:07:57.828Z,6.40
2019-02-03T22:10:32.400Z,6.40
2019-02-03T22:13:03.551Z,6.40
2019-02-03T22:15:32.061Z,6.50
2019-02-03T22:18:00.494Z,6.40
2019-02-03T22:20:29.070Z,6.50
2019-02-03T22:22:57.641Z,6.40
2019-02-03T22:25:28.026Z,6.40
2019-02-03T22:27:58.270Z,6.30
2019-02-03T22:30:36.328Z,6.30
2019-02-03T22:33:06.018Z,6.30
2019-02-03T22:35:34.635Z,6.30
2019-02-03T22:38:03.176Z,6.30
2019-02-03T22:40:31.656Z,6.40
2019-02-03T22:43:00.015Z,6.30
2019-02-03T22:45:28.406Z,6.30
2019-02-03T22:47:56.874Z,6.30
2019-02-03T22:50:27.966Z,6.30
2019-02-03T22:52:57.233Z,6.20
2019-02-03T22:55:25.915Z,6.20
2019-02-03T22:57:56.120Z,6.20
2019-02-03T23:01:10.721Z,6.30
2019-02-03T23:04:13.813Z,6.30
2019-02-03T23:06:42.596Z,6.20
2019-02-03T23:09:34.613Z,6.10
2019-02-03T23:12:06.604Z,6.20
2019-02-03T23:14:35.782Z,6.20
2019-02-03T23:17:04.967Z,6.30
2019-02-03T23:19:35.130Z,6.30
2019-02-03T23:22:03.624Z,6.20
2019-02-03T23:24:31.977Z,6.10
2019-02-03T23:27:00.739Z,6.10
2019-02-03T23:29:29.698Z,6.20
2019-02-03T23:31:58.165Z,6.10
2019-02-03T23:34:26.712Z,6.10
2019-02-03T23:36:56.299Z,6.00
2019-02-03T23:39:25.064Z,6.00
2019-02-03T23:41:53.428Z,6.10
2019-02-03T23:44:22.378Z,6.00
2019-02-03T23:46:52.585Z,6.00
2019-02-03T23:49:20.934Z,5.90
2019-02-03T23:51:49.418Z,5.90
2019-02-03T23:54:18.372Z,5.90
2019-02-03T23:56:46.745Z,5.90
2019-02-03T23:59:17.282Z,5.90
